Terminal Aerodrome Forecast
Issued by NWS New Orleans/Baton Rouge, LA

Home | Current Version | Previous Version | Text Only | Print | Product List | Glossary On
Versions: 1 2 3 4 5 6 7 8 9 10 11 12 13 14
000
FTUS44 KLIX 241100
TAFBTR
TAF
KBTR 241134Z 2412/2512 04003KT P6SM SKC
     FM241500 32004KT P6SM SCT030 SCT050
     FM241900 31005KT P6SM VCSH SCT040
     FM250100 VRB02KT P6SM SKC=

USA.gov is the U.S. government's official web portal to all federal, state and local government web resources and services.